createdAt,value
2022-08-12T00:01:09.599Z,3.60
2022-08-12T00:03:55.507Z,3.77
2022-08-12T00:06:43.659Z,3.50
2022-08-12T00:09:29.388Z,3.67
2022-08-12T00:12:15.194Z,3.63
2022-08-12T00:15:02.550Z,2.93
2022-08-12T00:17:48.895Z,3.13
2022-08-12T00:20:34.785Z,2.87
2022-08-12T00:23:22.109Z,3.10
2022-08-12T00:26:23.294Z,3.33
2022-08-12T00:29:11.802Z,3.57
2022-08-12T00:31:58.279Z,3.60
2022-08-12T00:34:46.568Z,3.37
2022-08-12T00:37:35.362Z,3.37
2022-08-12T00:40:24.577Z,3.40
2022-08-12T00:42:54.027Z,3.77
2022-08-12T00:45:22.570Z,3.83
2022-08-12T00:47:53.061Z,3.40
2022-08-12T00:50:23.835Z,3.53
2022-08-12T00:52:53.902Z,3.43
2022-08-12T00:55:23.597Z,3.50
2022-08-12T00:57:52.772Z,3.13
2022-08-12T01:00:24.131Z,3.50
2022-08-12T01:02:57.421Z,4.00
2022-08-12T01:05:44.768Z,3.87
2022-08-12T01:08:45.147Z,4.20
2022-08-12T01:11:31.430Z,4.20
2022-08-12T01:14:01.739Z,4.93
2022-08-12T01:16:30.874Z,5.03
2022-08-12T01:19:00.847Z,4.00
2022-08-12T01:22:04.313Z,4.80
2022-08-12T01:24:57.183Z,4.60
2022-08-12T01:27:27.616Z,5.67
2022-08-12T01:29:59.216Z,4.40
2022-08-12T01:32:30.224Z,4.67
2022-08-12T01:35:05.727Z,4.77
2022-08-12T01:37:39.221Z,4.73
2022-08-12T01:40:36.250Z,5.07
2022-08-12T01:43:06.736Z,4.70
2022-08-12T01:45:43.003Z,5.37
2022-08-12T01:48:25.410Z,5.07
2022-08-12T01:51:06.498Z,4.40
2022-08-12T01:53:51.436Z,4.47
2022-08-12T01:56:26.437Z,5.30
2022-08-12T01:59:19.407Z,4.63
2022-08-12T02:01:51.459Z,4.80
2022-08-12T02:04:52.760Z,4.70
2022-08-12T02:07:55.170Z,4.50
2022-08-12T02:10:53.622Z,4.80
2022-08-12T02:13:49.970Z,5.50
2022-08-12T02:16:37.942Z,5.10
2022-08-12T02:19:30.790Z,4.67
2022-08-12T02:22:13.193Z,4.90
2022-08-12T02:24:45.265Z,4.47
2022-08-12T02:27:16.368Z,5.23
2022-08-12T02:29:46.192Z,4.70
2022-08-12T02:32:15.542Z,4.27
2022-08-12T02:34:45.852Z,4.73
2022-08-12T02:37:16.817Z,5.20
2022-08-12T02:39:50.245Z,4.90
2022-08-12T02:42:22.182Z,5.40
2022-08-12T02:44:56.274Z,5.00
2022-08-12T02:48:00.356Z,4.20
2022-08-12T02:50:20.462Z,5.57
2022-08-12T02:52:49.816Z,5.23
2022-08-12T02:55:34.586Z,5.10
2022-08-12T02:58:12.715Z,5.17
2022-08-12T03:00:45.534Z,5.50
2022-08-12T03:03:15.709Z,5.57
2022-08-12T03:05:52.554Z,5.37
2022-08-12T03:08:31.930Z,5.93
2022-08-12T03:11:07.875Z,5.73
2022-08-12T03:13:48.456Z,5.40
2022-08-12T03:16:19.475Z,5.53
2022-08-12T03:18:49.739Z,5.80
2022-08-12T03:21:59.912Z,5.47
2022-08-12T03:24:10.033Z,6.00
2022-08-12T03:26:38.979Z,6.57
2022-08-12T03:29:08.311Z,6.27
2022-08-12T03:31:38.051Z,6.90
2022-08-12T03:34:09.522Z,6.10
2022-08-12T03:36:40.936Z,7.00
2022-08-12T03:39:36.196Z,7.33
2022-08-12T03:42:28.705Z,7.10
2022-08-12T03:45:42.023Z,8.27
2022-08-12T03:48:40.044Z,7.20
2022-08-12T03:51:27.512Z,8.30
2022-08-12T03:54:13.995Z,8.20
2022-08-12T03:56:59.984Z,7.80
2022-08-12T03:59:45.981Z,7.07
2022-08-12T04:02:16.323Z,7.13
2022-08-12T04:04:47.312Z,7.03
2022-08-12T04:07:18.333Z,7.70
2022-08-12T04:09:48.008Z,6.93
2022-08-12T04:12:34.497Z,7.10
2022-08-12T04:15:05.597Z,6.87
2022-08-12T04:17:35.554Z,7.03
2022-08-12T04:20:11.259Z,8.20
2022-08-12T04:22:40.726Z,7.27
2022-08-12T04:25:12.958Z,9.20
2022-08-12T04:27:46.214Z,8.63
2022-08-12T04:30:29.821Z,7.63
2022-08-12T04:33:01.445Z,8.00
2022-08-12T04:35:32.215Z,8.30
2022-08-12T04:38:01.194Z,7.57
2022-08-12T04:40:32.620Z,8.30
2022-08-12T04:43:02.172Z,8.47
2022-08-12T04:45:31.367Z,8.30
2022-08-12T04:48:01.899Z,8.20
2022-08-12T04:50:36.284Z,8.60
2022-08-12T04:53:08.306Z,8.17
2022-08-12T04:55:39.213Z,9.47
2022-08-12T04:58:08.478Z,9.00
2022-08-12T05:00:37.963Z,9.50
2022-08-12T05:03:07.526Z,8.77
2022-08-12T05:05:38.638Z,9.20
2022-08-12T05:08:12.811Z,9.00
2022-08-12T05:10:41.662Z,8.73
2022-08-12T05:13:14.367Z,9.40
2022-08-12T05:16:03.729Z,9.77
2022-08-12T05:18:33.693Z,9.40
2022-08-12T05:21:05.403Z,9.30
2022-08-12T05:23:33.929Z,8.63
2022-08-12T05:26:02.244Z,9.27
2022-08-12T05:28:31.119Z,9.50
2022-08-12T05:31:02.096Z,9.20
2022-08-12T05:33:37.651Z,9.30
2022-08-12T05:36:12.220Z,9.40
2022-08-12T05:38:59.851Z,9.27
2022-08-12T05:41:31.117Z,9.77
2022-08-12T05:44:01.655Z,9.50
2022-08-12T05:46:31.763Z,9.40
2022-08-12T05:49:01.635Z,9.40
2022-08-12T05:51:40.158Z,10.37
2022-08-12T05:54:11.729Z,9.87
2022-08-12T05:56:41.957Z,10.07
2022-08-12T05:59:13.971Z,10.83
2022-08-12T06:02:10.083Z,9.60
2022-08-12T06:04:33.233Z,11.20
2022-08-12T06:07:37.313Z,10.97
2022-08-12T06:09:52.192Z,10.37
2022-08-12T06:12:23.663Z,10.33
2022-08-12T06:14:55.664Z,10.63
2022-08-12T06:17:24.013Z,11.63
2022-08-12T06:20:26.731Z,11.20
2022-08-12T06:22:42.267Z,10.10
2022-08-12T06:25:11.145Z,9.83
2022-08-12T06:28:07.552Z,10.70
2022-08-12T06:30:39.370Z,10.50
2022-08-12T06:33:21.495Z,11.27
2022-08-12T06:35:57.804Z,10.80
2022-08-12T06:38:31.381Z,10.00
2022-08-12T06:41:19.761Z,11.13
2022-08-12T06:44:05.776Z,10.20
2022-08-12T06:46:38.925Z,10.93
2022-08-12T06:49:08.665Z,10.60
2022-08-12T06:51:36.987Z,12.00
2022-08-12T06:54:07.266Z,11.97
2022-08-12T06:59:25.069Z,11.87
2022-08-12T07:01:54.962Z,11.80
2022-08-12T07:04:36.201Z,11.50
2022-08-12T07:07:07.151Z,11.60
2022-08-12T07:10:04.419Z,12.07
2022-08-12T07:12:28.011Z,12.37
2022-08-12T07:14:57.377Z,12.40
2022-08-12T07:17:25.963Z,12.37
2022-08-12T07:19:58.022Z,11.70
2022-08-12T07:22:28.845Z,11.70
2022-08-12T07:25:15.914Z,11.70
2022-08-12T07:27:46.560Z,11.50
2022-08-12T07:30:15.396Z,12.27
2022-08-12T07:32:51.500Z,12.13
2022-08-12T07:35:20.444Z,12.57
2022-08-12T07:37:50.420Z,12.50
2022-08-12T07:40:21.485Z,12.70
2022-08-12T07:42:49.776Z,12.53
2022-08-12T07:45:20.381Z,14.13
2022-08-12T07:47:51.253Z,10.80
2022-08-12T07:50:23.788Z,11.23
2022-08-12T07:52:52.439Z,11.50
2022-08-12T07:55:22.184Z,10.83
2022-08-12T07:57:55.845Z,11.03
2022-08-12T08:00:24.957Z,11.03
2022-08-12T08:02:54.580Z,11.70
2022-08-12T08:05:25.618Z,10.53
2022-08-12T08:07:55.914Z,9.77
2022-08-12T08:10:26.217Z,9.83
2022-08-12T08:12:53.676Z,9.20
2022-08-12T08:15:38.612Z,9.80
2022-08-12T08:18:26.890Z,8.43
2022-08-12T08:20:57.440Z,9.23
2022-08-12T08:23:55.858Z,9.47
2022-08-12T08:26:27.260Z,8.43
2022-08-12T08:28:55.825Z,8.70
2022-08-12T08:31:24.252Z,8.50
2022-08-12T08:34:09.193Z,9.37
2022-08-12T08:36:43.640Z,7.80
2022-08-12T08:39:17.919Z,8.40
2022-08-12T08:42:17.302Z,8.10
2022-08-12T08:44:50.365Z,7.10
2022-08-12T08:47:27.122Z,7.50
2022-08-12T08:50:00.981Z,7.33
2022-08-12T08:52:40.030Z,8.37
2022-08-12T08:55:11.504Z,5.70
2022-08-12T08:57:44.667Z,7.03
2022-08-12T09:00:18.100Z,6.93
2022-08-12T09:02:49.098Z,7.43
2022-08-12T09:05:26.786Z,6.67
2022-08-12T09:08:09.109Z,6.80
2022-08-12T09:10:45.833Z,5.87
2022-08-12T09:14:11.764Z,7.17
2022-08-12T09:16:23.221Z,6.10
2022-08-12T09:18:52.506Z,6.03
2022-08-12T09:21:23.123Z,6.00
2022-08-12T09:30:11.804Z,5.87
2022-08-12T09:32:55.705Z,5.10
2022-08-12T09:35:22.215Z,5.67
2022-08-12T09:37:58.330Z,4.97
2022-08-12T09:41:01.739Z,4.83
2022-08-12T09:43:37.908Z,5.37
2022-08-12T09:46:25.043Z,4.90
2022-08-12T09:48:56.131Z,5.20
2022-08-12T09:51:35.609Z,5.60
2022-08-12T09:54:31.051Z,5.27
2022-08-12T09:57:00.985Z,5.40
2022-08-12T10:00:14.855Z,5.30
2022-08-12T10:02:52.744Z,4.80
2022-08-12T10:05:13.198Z,4.47
2022-08-12T10:07:42.763Z,5.47
2022-08-12T10:10:22.249Z,5.00
2022-08-12T10:13:14.048Z,4.37
2022-08-12T10:16:02.952Z,4.87
2022-08-12T10:18:52.396Z,5.03
2022-08-12T10:21:23.375Z,4.30
2022-08-12T10:23:56.904Z,4.47
2022-08-12T10:26:44.702Z,4.63
2022-08-12T10:30:37.235Z,4.27
2022-08-12T10:33:02.439Z,3.93
2022-08-12T10:35:16.396Z,4.37
2022-08-12T10:38:35.453Z,4.90
2022-08-12T10:40:58.569Z,3.70
2022-08-12T10:43:55.508Z,3.73
2022-08-12T10:46:30.846Z,3.73
2022-08-12T10:49:06.957Z,4.00
2022-08-12T10:52:03.661Z,4.20
2022-08-12T10:54:41.403Z,4.97
2022-08-12T10:57:18.481Z,3.80
2022-08-12T11:00:33.936Z,3.60
2022-08-12T11:04:25.040Z,3.57
2022-08-12T11:07:05.073Z,3.50
2022-08-12T11:08:43.695Z,4.17
2022-08-12T11:12:35.771Z,4.10
2022-08-12T11:14:09.096Z,4.07
2022-08-12T11:17:34.585Z,3.70
2022-08-12T11:19:46.388Z,3.70
2022-08-12T11:22:14.681Z,3.90
2022-08-12T11:24:51.318Z,4.20
2022-08-12T11:27:20.283Z,3.60
2022-08-12T11:30:05.225Z,3.90
2022-08-12T11:32:38.426Z,3.70
2022-08-12T11:35:11.716Z,3.67
2022-08-12T11:37:58.411Z,3.87
2022-08-12T11:40:29.939Z,3.83
2022-08-12T11:43:03.628Z,4.10
2022-08-12T11:45:52.895Z,3.87
2022-08-12T11:48:26.899Z,4.00
2022-08-12T11:50:56.486Z,4.10
2022-08-12T11:53:58.460Z,3.63
2022-08-12T11:56:14.376Z,3.90
2022-08-12T12:02:01.389Z,4.13
2022-08-12T12:04:28.724Z,3.70
2022-08-12T12:07:07.340Z,3.83
2022-08-12T12:09:51.856Z,5.23
2022-08-12T12:12:26.561Z,4.00
2022-08-12T12:15:03.052Z,4.20
2022-08-12T12:17:38.106Z,4.00
2022-08-12T12:20:09.950Z,3.90
2022-08-12T12:22:40.756Z,3.93
2022-08-12T12:25:13.020Z,3.80
2022-08-12T12:28:04.891Z,3.63
2022-08-12T12:30:35.217Z,4.30
2022-08-12T12:33:05.413Z,4.20
2022-08-12T12:36:17.148Z,3.97
2022-08-12T12:38:25.204Z,3.27
2022-08-12T12:40:55.217Z,3.90
2022-08-12T12:43:29.125Z,3.87
2022-08-12T12:46:11.577Z,3.80
2022-08-12T12:48:44.119Z,3.30
2022-08-12T12:51:49.109Z,3.73
2022-08-12T12:54:10.084Z,3.87
2022-08-12T12:56:42.856Z,4.40
2022-08-12T12:59:55.202Z,4.17
2022-08-12T13:02:08.226Z,3.90
2022-08-12T13:04:38.125Z,4.07
2022-08-12T13:07:07.896Z,4.27
2022-08-12T13:09:36.967Z,3.73
2022-08-12T13:12:10.802Z,4.20
2022-08-12T13:14:40.599Z,4.03
2022-08-12T13:17:14.635Z,3.50
2022-08-12T13:19:48.306Z,5.73
2022-08-12T13:22:23.602Z,4.20
2022-08-12T13:24:56.366Z,4.70
2022-08-12T13:27:35.181Z,4.23
2022-08-12T13:30:12.375Z,3.97
2022-08-12T13:32:43.568Z,3.40
2022-08-12T13:36:03.022Z,3.97
2022-08-12T13:38:13.628Z,4.17
2022-08-12T13:40:42.160Z,4.10
2022-08-12T13:43:40.637Z,4.90
2022-08-12T13:46:12.104Z,4.40
2022-08-12T13:48:45.184Z,4.63
2022-08-12T13:51:14.181Z,4.23
2022-08-12T13:53:57.655Z,4.03
2022-08-12T13:56:35.153Z,4.20
2022-08-12T13:59:08.033Z,3.70
2022-08-12T14:01:40.372Z,3.80
2022-08-12T14:04:11.935Z,4.30
2022-08-12T14:06:40.825Z,4.00
2022-08-12T14:09:17.483Z,4.23
2022-08-12T14:11:58.394Z,4.50
2022-08-12T14:14:31.525Z,4.17
2022-08-12T14:17:10.896Z,4.37
2022-08-12T14:20:00.731Z,4.50
2022-08-12T14:22:30.386Z,4.23
2022-08-12T14:25:01.288Z,4.40
2022-08-12T14:28:04.120Z,4.80
2022-08-12T14:30:29.142Z,4.57
2022-08-12T14:33:03.329Z,3.87
2022-08-12T14:35:33.940Z,3.87
2022-08-12T14:38:25.885Z,4.20
2022-08-12T14:40:57.702Z,4.57
2022-08-12T14:43:31.622Z,4.70
2022-08-12T14:46:16.146Z,4.10
2022-08-12T14:48:50.914Z,3.97
2022-08-12T14:52:54.092Z,4.00
2022-08-12T14:56:59.779Z,4.07
2022-08-12T14:57:20.490Z,4.50
2022-08-12T15:00:04.410Z,4.00
2022-08-12T15:02:32.661Z,4.20
2022-08-12T15:05:03.460Z,4.63
2022-08-12T15:07:33.609Z,4.80
2022-08-12T15:10:31.368Z,3.90
2022-08-12T15:13:07.544Z,3.97
2022-08-12T15:15:44.136Z,4.20
2022-08-12T15:18:21.074Z,4.60
2022-08-12T15:20:54.751Z,4.17
2022-08-12T15:23:24.434Z,4.07
2022-08-12T15:26:02.589Z,4.23
2022-08-12T15:28:34.987Z,4.30
2022-08-12T15:31:21.570Z,4.10
2022-08-12T15:33:54.525Z,4.20
2022-08-12T15:36:50.244Z,4.30
2022-08-12T15:39:16.489Z,5.10
2022-08-12T15:41:49.165Z,4.10
2022-08-12T15:44:42.273Z,4.10
2022-08-12T15:47:06.656Z,4.10
2022-08-12T15:49:54.292Z,3.47
2022-08-12T15:52:29.956Z,4.17
2022-08-12T15:55:06.281Z,4.07
2022-08-12T15:57:53.236Z,4.10
2022-08-12T16:00:33.173Z,4.00
2022-08-12T16:03:08.496Z,4.50
2022-08-12T16:06:11.027Z,4.47
2022-08-12T16:08:42.366Z,3.93
2022-08-12T16:11:14.821Z,3.80
2022-08-12T16:13:44.477Z,4.00
2022-08-12T16:16:23.786Z,3.70
2022-08-12T16:18:59.545Z,4.63
2022-08-12T16:21:51.328Z,3.73
2022-08-12T16:24:20.481Z,4.10
2022-08-12T16:26:54.346Z,4.00
2022-08-12T16:29:49.353Z,4.33
2022-08-12T16:32:23.177Z,3.73
2022-08-12T16:34:55.907Z,3.77
2022-08-12T16:38:05.041Z,3.90
2022-08-12T16:40:15.988Z,4.30
2022-08-12T16:42:54.133Z,3.77
2022-08-12T16:46:05.170Z,3.90
2022-08-12T16:48:34.900Z,3.27
2022-08-12T16:51:09.334Z,4.23
2022-08-12T16:53:44.673Z,3.77
2022-08-12T16:56:17.224Z,3.93
2022-08-12T16:58:47.031Z,3.40
2022-08-12T17:01:15.736Z,3.50
2022-08-12T17:03:52.832Z,3.60
2022-08-12T17:06:27.630Z,3.77
2022-08-12T17:09:08.778Z,3.40
2022-08-12T17:11:49.179Z,4.17
2022-08-12T17:14:20.368Z,3.87
2022-08-12T17:16:54.901Z,3.77
2022-08-12T17:20:12.140Z,3.23
2022-08-12T17:22:16.555Z,3.33
2022-08-12T17:24:55.428Z,3.60
2022-08-12T17:27:26.607Z,3.77
2022-08-12T17:30:04.712Z,3.70
2022-08-12T17:32:37.195Z,3.70
2022-08-12T17:35:29.617Z,3.60
2022-08-12T17:38:02.158Z,3.70
2022-08-12T17:40:35.904Z,3.80
2022-08-12T17:43:52.045Z,3.33
2022-08-12T17:45:59.841Z,3.40
2022-08-12T17:48:34.812Z,3.73
2022-08-12T17:51:15.610Z,3.57
2022-08-12T17:54:06.060Z,3.70
2022-08-12T17:56:37.906Z,3.87
2022-08-12T17:59:12.747Z,3.33
2022-08-12T18:01:45.510Z,3.50
2022-08-12T18:04:22.987Z,3.40
2022-08-12T18:07:08.426Z,3.63
2022-08-12T18:09:37.838Z,3.70
2022-08-12T18:12:26.611Z,3.73
2022-08-12T18:15:00.504Z,3.77
2022-08-12T18:17:32.339Z,3.03
2022-08-12T18:20:15.546Z,3.30
2022-08-12T18:22:47.514Z,3.20
2022-08-12T18:26:16.755Z,8.90
2022-08-12T18:28:28.159Z,7.20
2022-08-12T18:31:03.362Z,5.70
2022-08-12T18:33:41.694Z,5.00
2022-08-12T18:36:22.504Z,4.43
2022-08-12T18:38:56.038Z,4.83
2022-08-12T18:41:32.103Z,4.60
2022-08-12T18:44:07.929Z,4.57
2022-08-12T18:46:48.891Z,4.27
2022-08-12T18:49:31.582Z,5.00
2022-08-12T18:52:04.680Z,4.30
2022-08-12T18:54:41.405Z,4.77
2022-08-12T18:57:19.797Z,4.30
2022-08-12T19:00:13.123Z,4.50
2022-08-12T19:02:44.362Z,3.93
2022-08-12T19:05:17.573Z,4.50
2022-08-12T19:08:01.806Z,4.20
2022-08-12T19:10:32.415Z,4.33
2022-08-12T19:13:24.271Z,4.70
2022-08-12T19:15:57.489Z,4.40
2022-08-12T19:18:31.117Z,4.43
2022-08-12T19:21:06.661Z,4.30
2022-08-12T19:23:43.964Z,4.80
2022-08-12T19:26:13.241Z,5.27
2022-08-12T19:28:51.712Z,4.50
2022-08-12T19:31:55.789Z,4.57
2022-08-12T19:37:27.188Z,3.60
2022-08-12T19:40:09.495Z,3.70
2022-08-12T19:42:53.603Z,3.80
2022-08-12T19:45:22.946Z,4.23
2022-08-12T19:47:51.277Z,4.03
2022-08-12T19:50:20.904Z,3.60
2022-08-12T19:52:51.051Z,3.60
2022-08-12T19:55:22.868Z,4.00
2022-08-12T19:58:01.927Z,3.27
2022-08-12T20:00:34.499Z,3.73
2022-08-12T20:03:05.311Z,4.00
2022-08-12T20:06:06.333Z,4.27
2022-08-12T20:08:31.436Z,6.20
2022-08-12T20:12:13.088Z,6.10
2022-08-12T20:14:00.536Z,5.83
2022-08-12T20:19:52.731Z,4.50
2022-08-12T20:22:23.841Z,4.60
2022-08-12T20:25:06.785Z,4.23
2022-08-12T20:28:04.298Z,3.90
2022-08-12T20:30:37.906Z,4.17
2022-08-12T20:33:18.475Z,4.30
2022-08-12T20:36:07.066Z,5.10
2022-08-12T20:38:46.041Z,4.10
2022-08-12T20:41:19.268Z,3.83
2022-08-12T20:43:50.660Z,4.47
2022-08-12T20:46:21.456Z,4.30
2022-08-12T20:48:54.581Z,3.90
2022-08-12T20:51:27.621Z,4.00
2022-08-12T20:54:00.160Z,4.03
2022-08-12T20:56:32.969Z,4.20
2022-08-12T20:59:06.994Z,3.80
2022-08-12T21:01:36.659Z,3.90
2022-08-12T21:04:34.245Z,4.10
2022-08-12T21:07:09.734Z,4.00
2022-08-12T21:09:44.622Z,3.87
2022-08-12T21:12:27.833Z,3.53
2022-08-12T21:15:23.707Z,4.00
2022-08-12T21:18:11.439Z,3.87
2022-08-12T21:20:53.117Z,3.90
2022-08-12T21:23:23.561Z,4.70
2022-08-12T21:26:01.278Z,4.73
2022-08-12T21:28:31.186Z,4.10
2022-08-12T21:32:34.533Z,4.23
2022-08-12T21:34:08.769Z,3.90
2022-08-12T21:36:43.423Z,3.97
2022-08-12T21:39:21.400Z,3.77
2022-08-12T21:41:53.755Z,3.80
2022-08-12T21:45:47.900Z,3.70
2022-08-12T21:47:21.196Z,3.60
2022-08-12T21:50:02.917Z,3.90
2022-08-12T21:52:36.011Z,3.87
2022-08-12T21:55:08.447Z,3.10
2022-08-12T21:57:53.541Z,3.90
2022-08-12T22:00:33.592Z,3.43
2022-08-12T22:04:02.028Z,4.23
2022-08-12T22:06:30.692Z,3.27
2022-08-12T22:09:16.571Z,4.10
2022-08-12T22:11:56.052Z,3.47
2022-08-12T22:14:29.021Z,3.30
2022-08-12T22:17:00.786Z,3.40
2022-08-12T22:19:33.781Z,3.40
2022-08-12T22:22:05.325Z,3.30
2022-08-12T22:24:34.182Z,3.23
2022-08-12T22:27:08.132Z,3.87
2022-08-12T22:30:11.218Z,3.27
2022-08-12T22:32:49.880Z,3.40
2022-08-12T22:35:47.690Z,3.40
2022-08-12T22:38:26.489Z,3.60
2022-08-12T22:40:58.538Z,4.20
2022-08-12T22:43:59.555Z,4.30
2022-08-12T22:46:53.104Z,4.67
2022-08-12T22:49:25.988Z,4.07
2022-08-12T22:52:08.214Z,3.87
2022-08-12T22:54:37.898Z,4.80
2022-08-12T22:57:53.291Z,3.63
2022-08-12T23:00:24.170Z,4.10
2022-08-12T23:03:02.997Z,4.40
2022-08-12T23:05:56.704Z,3.70
2022-08-12T23:08:29.888Z,4.00
2022-08-12T23:11:00.064Z,4.47
2022-08-12T23:13:49.095Z,4.00
2022-08-12T23:16:31.181Z,4.40
2022-08-12T23:19:10.354Z,4.70
2022-08-12T23:22:06.482Z,4.50
2022-08-12T23:24:55.654Z,4.27
2022-08-12T23:27:50.917Z,4.57
2022-08-12T23:30:31.197Z,4.00
2022-08-12T23:33:01.445Z,4.20
2022-08-12T23:35:53.982Z,4.30
2022-08-12T23:38:31.814Z,4.60
2022-08-12T23:41:02.862Z,4.20
2022-08-12T23:43:39.163Z,4.10
2022-08-12T23:46:11.558Z,4.83
2022-08-12T23:48:40.933Z,4.50
2022-08-12T23:51:22.549Z,4.60
2022-08-12T23:54:00.051Z,4.07
2022-08-12T23:56:33.559Z,4.77
2022-08-12T23:59:03.098Z,4.47
